Date,TemperatureHighF,TemperatureAvgF,TemperatureLowF,DewpointHighF,DewpointAvgF,DewpointLowF,HumidityHigh,HumidityAvg,HumidityLow,PressureMaxIn,PressureMinIn,WindSpeedMaxMPH,WindSpeedAvgMPH,GustSpeedMaxMPH,PrecipitationSumIn
2013-3-1,53.8,41.8,32.5,33.9,31.4,29.8,91,69,45,30.44,30.31,20,1,20,0.00
2013-3-2,54.4,39.4,30.4,32.1,30.1,27.7,92,71,41,30.38,29.94,8,0,8,0.00
2013-3-3,39.7,34.3,24.5,34.5,22.5,7.8,93,66,28,30.16,29.74,26,4,26,0.01
2013-3-4,30.2,22.8,15.3,18.4,13.9,8.3,86,70,40,30.50,30.16,12,2,12,0.00
2013-3-5,36.0,24.1,9.1,25.1,15.3,6.4,91,71,47,30.45,30.17,10,1,10,0.00
2013-3-6,41.2,31.0,22.4,32.8,24.8,18.3,96,78,55,30.17,29.80,11,1,11,0.01
2013-3-7,46.8,35.4,27.8,33.1,24.7,16.6,95,68,30,30.13,29.90,11,1,11,0.00
2013-3-8,44.9,31.9,20.5,28.5,19.6,7.3,84,62,26,30.12,29.96,6,1,6,0.00
2013-3-9,48.2,33.7,18.3,21.9,18.1,13.0,81,55,32,30.40,30.10,15,1,15,0.00
2013-3-10,50.1,33.9,19.9,29.1,22.1,17.1,93,66,27,30.45,30.19,15,2,17,0.00
2013-3-11,42.1,35.0,22.7,28.7,22.6,17.4,82,61,44,30.40,30.17,22,2,22,0.00
2013-3-12,46.2,31.2,18.3,30.9,21.9,14.7,87,70,47,30.40,30.19,9,1,9,0.00
2013-3-13,60.4,46.3,33.0,31.7,29.3,26.3,79,54,28,30.25,30.14,13,1,13,0.00
2013-3-14,60.2,43.0,30.7,33.9,30.2,26.6,89,63,35,30.24,29.98,5,0,5,0.00
2013-3-15,57.2,47.3,34.1,33.6,28.8,25.3,80,51,30,30.04,29.98,22,2,22,0.00
2013-3-16,53.1,40.2,32.3,31.3,26.9,21.1,83,61,29,30.04,29.66,11,1,11,0.00
2013-3-17,39.4,32.1,19.6,32.0,20.0,10.5,90,63,34,30.07,29.57,24,3,24,0.00
2013-3-18,40.4,27.0,15.0,25.2,17.7,11.2,93,71,30,30.17,30.03,27,2,27,0.01
2013-3-19,44.4,31.8,21.0,24.9,17.7,8.7,92,60,23,30.39,30.17,15,1,15,0.00
2013-3-20,58.2,42.2,28.1,33.6,23.8,13.3,69,49,31,30.19,29.53,20,3,20,0.00
2013-3-21,40.4,35.1,25.5,23.7,15.3,7.5,66,45,27,30.00,29.65,24,3,24,0.00
2013-3-22,37.9,26.4,16.8,20.1,12.6,7.4,81,57,34,30.37,30.00,15,1,15,0.00
2013-3-23,35.7,22.1,7.6,17.2,8.1,-1.6,82,58,26,30.50,30.37,13,1,14,0.00
2013-3-24,39.4,24.1,9.2,18.5,9.3,2.9,86,58,25,30.55,30.39,12,1,12,0.00
2013-3-25,48.1,29.5,15.5,20.6,12.4,7.3,81,52,21,30.41,30.12,10,2,10,0.00
2013-3-26,49.4,36.2,24.6,28.1,20.7,14.3,75,54,34,30.16,29.99,8,1,8,0.00
2013-3-27,57.2,38.2,21.7,27.9,23.2,17.1,88,58,30,30.13,30.02,9,1,9,0.00
2013-3-28,58.4,44.4,27.8,37.5,31.1,24.6,94,62,35,30.15,30.01,7,1,7,0.00
2013-3-29,55.9,45.5,34.4,37.7,33.1,27.3,89,64,36,30.18,30.09,18,1,18,0.00
2013-3-30,60.4,46.6,31.8,35.2,28.2,23.0,85,52,26,30.27,30.09,13,1,14,0.00
2013-3-31,60.3,42.7,28.3,34.4,27.3,23.1,85,58,29,30.15,30.07,12,1,12,0.00